createdAt,value
2019-03-08T00:02:00.020Z,97934.31
2019-03-08T00:04:29.186Z,97934.08
2019-03-08T00:06:58.056Z,97937.11
2019-03-08T00:09:26.925Z,97933.04
2019-03-08T00:11:55.817Z,97938.88
2019-03-08T00:14:24.712Z,97930.09
2019-03-08T00:16:53.637Z,97937.84
2019-03-08T00:19:22.511Z,97939.89
2019-03-08T00:21:51.396Z,97936.97
2019-03-08T00:24:20.195Z,97940.16
2019-03-08T00:26:49.205Z,97942.30
2019-03-08T00:29:18.529Z,97952.27
2019-03-08T00:31:47.426Z,97955.66
2019-03-08T00:34:16.246Z,97962.81
2019-03-08T00:36:45.301Z,97968.32
2019-03-08T00:39:14.180Z,97966.50
2019-03-08T00:41:43.153Z,97973.45
2019-03-08T00:44:12.257Z,97976.31
2019-03-08T00:46:41.153Z,97972.02
2019-03-08T00:49:10.090Z,97981.01
2019-03-08T00:51:38.983Z,97981.01
2019-03-08T00:54:07.876Z,97973.99
2019-03-08T00:56:36.705Z,97976.98
2019-03-08T00:59:05.830Z,97971.91
2019-03-08T01:01:34.723Z,97977.34
2019-03-08T01:04:03.719Z,97978.48
2019-03-08T01:06:33.643Z,97971.97
2019-03-08T01:09:04.952Z,97980.55
2019-03-08T01:11:34.000Z,97982.45
2019-03-08T01:14:04.077Z,97974.89
2019-03-08T01:16:33.997Z,97974.02
2019-03-08T01:19:02.893Z,97980.39
2019-03-08T01:21:31.785Z,97979.69
2019-03-08T01:24:00.730Z,97975.23
2019-03-08T01:26:30.134Z,97987.52
2019-03-08T01:28:59.245Z,97987.14
2019-03-08T01:31:28.077Z,97983.52
2019-03-08T01:33:57.065Z,97976.91
2019-03-08T01:36:26.026Z,97982.86
2019-03-08T01:38:55.004Z,97978.45
2019-03-08T01:41:23.960Z,97971.20
2019-03-08T01:43:52.867Z,97977.35
2019-03-08T01:46:21.781Z,97982.99
2019-03-08T01:48:50.655Z,97983.09
2019-03-08T01:51:19.531Z,97985.41
2019-03-08T01:53:48.488Z,97979.40
2019-03-08T01:56:17.381Z,97979.19
2019-03-08T01:58:46.253Z,97986.24
2019-03-08T02:01:15.279Z,97978.28
2019-03-08T02:03:44.227Z,97983.22
2019-03-08T02:06:13.118Z,97976.22
2019-03-08T02:08:43.328Z,97977.62
2019-03-08T02:11:12.453Z,97974.99
2019-03-08T02:13:41.407Z,97972.52
2019-03-08T02:16:10.438Z,97974.39
2019-03-08T02:18:39.246Z,97968.69
2019-03-08T02:21:08.310Z,97967.86
2019-03-08T02:23:37.113Z,97959.23
2019-03-08T02:26:06.689Z,97968.44
2019-03-08T02:28:35.518Z,97963.11
2019-03-08T02:31:04.388Z,97961.30
2019-03-08T02:33:33.278Z,97964.23
2019-03-08T02:36:02.136Z,97970.52
2019-03-08T02:38:31.109Z,97984.69
2019-03-08T02:40:59.984Z,98009.36
2019-03-08T02:43:28.878Z,98054.92
2019-03-08T02:45:57.794Z,98070.15
2019-03-08T02:48:26.704Z,98080.94
2019-03-08T02:50:55.653Z,98071.31
2019-03-08T02:53:24.665Z,98075.55
2019-03-08T02:55:53.556Z,98071.62
2019-03-08T02:58:22.456Z,98062.70
2019-03-08T03:00:51.356Z,98062.81
2019-03-08T03:03:20.433Z,98068.50
2019-03-08T03:05:49.663Z,98067.52
2019-03-08T03:08:18.612Z,98051.14
2019-03-08T03:10:47.557Z,98060.79
2019-03-08T03:13:16.438Z,98068.02
2019-03-08T03:15:45.393Z,98064.91
2019-03-08T03:18:14.285Z,98059.11
2019-03-08T03:20:43.101Z,98063.75
2019-03-08T03:23:11.922Z,98066.12
2019-03-08T03:25:40.897Z,98067.08
2019-03-08T03:28:09.860Z,98072.75
2019-03-08T03:30:39.540Z,98061.50
2019-03-08T03:33:08.521Z,98076.56
2019-03-08T03:35:37.340Z,98076.08
2019-03-08T03:38:06.350Z,98090.09
2019-03-08T03:40:35.330Z,98084.17
2019-03-08T03:43:04.414Z,98097.09
2019-03-08T03:45:33.300Z,98103.64
2019-03-08T03:48:02.206Z,98094.52
2019-03-08T03:50:31.265Z,98095.94
2019-03-08T03:53:00.226Z,98098.29
2019-03-08T03:55:29.207Z,98092.83
2019-03-08T03:57:58.185Z,98098.98
2019-03-08T04:00:27.144Z,98102.03
2019-03-08T04:02:56.409Z,98102.19
2019-03-08T04:05:25.382Z,98106.48
2019-03-08T04:07:54.174Z,98107.20
2019-03-08T04:10:23.144Z,98119.42
2019-03-08T04:12:52.142Z,98115.74
2019-03-08T04:15:21.237Z,98123.94
2019-03-08T04:17:50.212Z,98132.39
2019-03-08T04:20:19.325Z,98132.03
2019-03-08T04:22:48.310Z,98138.78
2019-03-08T04:25:17.265Z,98138.08
2019-03-08T04:27:46.232Z,98145.45
2019-03-08T04:30:15.861Z,98149.05
2019-03-08T04:32:44.754Z,98157.92
2019-03-08T04:35:13.714Z,98157.80
2019-03-08T04:37:42.675Z,98159.13
2019-03-08T04:40:12.843Z,98159.70
2019-03-08T04:42:42.947Z,98159.70
2019-03-08T04:45:13.299Z,98162.70
2019-03-08T04:47:42.998Z,98168.28
2019-03-08T04:50:11.977Z,98169.45
2019-03-08T04:52:41.028Z,98182.17
2019-03-08T04:55:11.888Z,98181.02
2019-03-08T04:57:40.944Z,98180.64
2019-03-08T05:00:11.204Z,98180.19
2019-03-08T05:02:40.383Z,98178.63
2019-03-08T05:05:09.396Z,98175.08
2019-03-08T05:07:38.188Z,98183.84
2019-03-08T05:10:08.334Z,98179.13
2019-03-08T05:12:37.156Z,98186.14
2019-03-08T05:15:06.330Z,98196.94
2019-03-08T05:17:35.361Z,98193.62
2019-03-08T05:20:04.499Z,98202.11
2019-03-08T05:22:33.439Z,98206.62
2019-03-08T05:25:02.332Z,98202.56
2019-03-08T05:27:31.705Z,98203.05
2019-03-08T05:30:00.521Z,98207.34
2019-03-08T05:32:29.368Z,98213.63
2019-03-08T05:34:58.248Z,98221.61
2019-03-08T05:37:27.068Z,98221.80
2019-03-08T05:39:55.953Z,98212.30
2019-03-08T05:42:25.126Z,98228.91
2019-03-08T05:44:54.050Z,98225.13
2019-03-08T05:47:23.011Z,98231.31
2019-03-08T05:49:51.904Z,98238.80
2019-03-08T05:52:20.921Z,98233.36
2019-03-08T05:54:50.039Z,98234.22
2019-03-08T05:57:19.434Z,98236.90
2019-03-08T05:59:48.433Z,98243.71
2019-03-08T06:02:17.410Z,98255.73
2019-03-08T06:04:46.667Z,98241.58
2019-03-08T06:07:15.706Z,98242.76
2019-03-08T06:09:44.622Z,98249.67
2019-03-08T06:12:13.621Z,98252.61
2019-03-08T06:14:42.410Z,98257.13
2019-03-08T06:17:11.456Z,98263.45
2019-03-08T06:19:40.387Z,98254.06
2019-03-08T06:22:09.542Z,98262.02
2019-03-08T06:24:38.377Z,98269.14
2019-03-08T06:27:07.718Z,98279.02
2019-03-08T06:29:36.524Z,98265.59
2019-03-08T06:32:05.470Z,98268.66
2019-03-08T06:34:34.326Z,98278.73
2019-03-08T06:37:03.464Z,98272.75
2019-03-08T06:39:32.275Z,98282.55
2019-03-08T06:42:01.343Z,98287.68
2019-03-08T06:44:30.156Z,98291.14
2019-03-08T06:46:59.185Z,98299.26
2019-03-08T06:49:28.016Z,98297.62
2019-03-08T06:51:56.911Z,98305.35
2019-03-08T06:54:25.855Z,98304.86
2019-03-08T06:56:55.049Z,98310.73
2019-03-08T06:59:37.570Z,98316.42
2019-03-08T07:02:06.392Z,98317.50
2019-03-08T07:04:35.285Z,98321.19
2019-03-08T07:07:04.255Z,98330.22
2019-03-08T07:09:33.552Z,98330.82
2019-03-08T07:12:02.520Z,98337.88
2019-03-08T07:14:31.427Z,98338.41
2019-03-08T07:17:00.325Z,98349.54
2019-03-08T07:19:29.295Z,98349.54
2019-03-08T07:22:05.176Z,98342.54
2019-03-08T07:24:53.071Z,98348.39
2019-03-08T07:27:50.462Z,98350.72
2019-03-08T07:30:37.781Z,98364.15
2019-03-08T07:33:16.049Z,98371.88
2019-03-08T07:35:59.703Z,98376.53
2019-03-08T07:38:50.386Z,98378.87
2019-03-08T07:41:36.418Z,98374.95
2019-03-08T07:44:23.257Z,98387.20
2019-03-08T07:46:58.657Z,98389.11
2019-03-08T07:49:35.764Z,98395.08
2019-03-08T07:52:25.887Z,98408.19
2019-03-08T07:55:10.878Z,98408.91
2019-03-08T07:57:53.284Z,98427.69
2019-03-08T08:00:39.114Z,98428.06
2019-03-08T08:03:27.131Z,98429.84
2019-03-08T08:06:18.147Z,98439.48
2019-03-08T08:09:08.802Z,98430.09
2019-03-08T08:11:55.398Z,98447.00
2019-03-08T08:14:40.581Z,98454.89
2019-03-08T08:17:34.750Z,98455.73
2019-03-08T08:20:35.370Z,98457.98
2019-03-08T08:23:09.683Z,98465.38
2019-03-08T08:25:56.803Z,98473.59
2019-03-08T08:28:59.962Z,98473.47
2019-03-08T08:31:43.929Z,98480.03
2019-03-08T08:34:21.947Z,98493.27
2019-03-08T08:37:08.579Z,98490.03
2019-03-08T08:40:11.548Z,98495.97
2019-03-08T08:43:05.408Z,98492.86
2019-03-08T08:45:53.547Z,98486.77
2019-03-08T08:48:39.316Z,98495.37
2019-03-08T08:51:30.259Z,98501.09
2019-03-08T08:54:23.897Z,98502.16
2019-03-08T08:57:03.089Z,98503.80
2019-03-08T08:59:49.865Z,98500.86
2019-03-08T09:02:25.786Z,98495.11
2019-03-08T09:05:02.808Z,98506.22
2019-03-08T09:07:56.802Z,98492.53
2019-03-08T09:10:32.796Z,98509.20
2019-03-08T09:13:15.142Z,98500.13
2019-03-08T09:15:59.737Z,98519.20
2019-03-08T09:18:56.956Z,98515.56
2019-03-08T09:21:43.009Z,98517.09
2019-03-08T09:24:29.649Z,98518.81
2019-03-08T09:27:14.002Z,98517.55
2019-03-08T09:30:01.902Z,98515.26
2019-03-08T09:32:48.507Z,98530.06
2019-03-08T09:35:31.856Z,98533.03
2019-03-08T09:38:06.963Z,98524.75
2019-03-08T09:41:03.618Z,98541.58
2019-03-08T09:43:50.030Z,98538.81
2019-03-08T09:46:37.066Z,98549.58
2019-03-08T09:49:19.193Z,98554.64
2019-03-08T09:52:04.061Z,98560.73
2019-03-08T09:54:45.362Z,98564.52
2019-03-08T09:57:42.228Z,98552.94
2019-03-08T10:00:39.607Z,98564.12
2019-03-08T10:03:17.289Z,98551.27
2019-03-08T10:06:03.990Z,98562.48
2019-03-08T10:08:51.162Z,98544.53
2019-03-08T10:11:24.416Z,98544.80
2019-03-08T10:14:03.721Z,98533.84
2019-03-08T10:16:51.542Z,98535.46
2019-03-08T10:19:32.224Z,98530.58
2019-03-08T10:22:19.104Z,98539.23
2019-03-08T10:25:01.506Z,98537.98
2019-03-08T10:27:48.020Z,98550.30
2019-03-08T10:30:39.165Z,98558.10
2019-03-08T10:33:17.132Z,98556.70
2019-03-08T10:35:56.641Z,98573.66
2019-03-08T10:38:47.648Z,98557.88
2019-03-08T10:41:33.335Z,98560.87
2019-03-08T10:44:22.079Z,98560.96
2019-03-08T10:46:56.700Z,98568.27
2019-03-08T10:49:55.444Z,98576.08
2019-03-08T10:52:43.683Z,98579.20
2019-03-08T10:55:50.624Z,98579.28
2019-03-08T10:58:29.271Z,98588.13
2019-03-08T11:01:16.228Z,98591.05
2019-03-08T11:03:58.151Z,98592.90
2019-03-08T11:06:40.024Z,98597.31
2019-03-08T11:09:31.185Z,98598.23
2019-03-08T11:12:17.977Z,98602.47
2019-03-08T11:15:04.730Z,98616.88
2019-03-08T11:17:50.755Z,98612.35
2019-03-08T11:20:26.129Z,98621.39
2019-03-08T11:23:30.019Z,98626.81
2019-03-08T11:26:16.750Z,98617.12
2019-03-08T11:29:07.571Z,98628.42
2019-03-08T11:31:55.128Z,98641.22
2019-03-08T11:34:41.650Z,98629.47
2019-03-08T11:37:35.750Z,98650.20
2019-03-08T11:40:40.026Z,98634.20
2019-03-08T11:43:16.562Z,98632.97
2019-03-08T11:45:51.709Z,98633.66
2019-03-08T11:48:39.851Z,98631.07
2019-03-08T11:51:25.024Z,98640.27
2019-03-08T11:54:12.934Z,98625.45
2019-03-08T11:57:04.012Z,98620.00
2019-03-08T12:00:07.445Z,98629.55
2019-03-08T12:02:46.685Z,98629.30
2019-03-08T12:05:37.469Z,98620.23
2019-03-08T12:08:22.580Z,98626.97
2019-03-08T12:11:25.895Z,98616.36
2019-03-08T12:14:11.365Z,98628.02
2019-03-08T12:16:58.934Z,98622.89
2019-03-08T12:19:36.926Z,98619.22
2019-03-08T12:22:16.820Z,98617.90
2019-03-08T12:24:54.194Z,98615.17
2019-03-08T12:27:34.415Z,98628.44
2019-03-08T12:30:21.125Z,98622.77
2019-03-08T12:33:00.137Z,98638.00
2019-03-08T12:35:37.625Z,98627.66
2019-03-08T12:38:19.950Z,98630.39
2019-03-08T12:40:57.410Z,98635.94
2019-03-08T12:43:37.640Z,98630.39
2019-03-08T12:46:20.297Z,98624.72
2019-03-08T12:48:59.027Z,98624.79
2019-03-08T12:51:41.312Z,98628.80
2019-03-08T12:54:28.175Z,98633.73
2019-03-08T12:57:19.080Z,98621.43
2019-03-08T13:00:00.309Z,98624.91
2019-03-08T13:02:42.419Z,98639.03
2019-03-08T13:05:34.194Z,98634.47
2019-03-08T13:08:17.370Z,98639.62
2019-03-08T13:10:46.403Z,98655.27
2019-03-08T13:13:15.340Z,98681.31
2019-03-08T13:15:44.230Z,98701.80
2019-03-08T13:18:13.123Z,98703.94
2019-03-08T13:20:42.262Z,98695.08
2019-03-08T13:23:11.155Z,98706.36
2019-03-08T13:25:40.023Z,98719.68
2019-03-08T13:28:08.851Z,98726.97
2019-03-08T13:30:37.699Z,98723.28
2019-03-08T13:33:06.606Z,98727.35
2019-03-08T13:35:35.853Z,98723.23
2019-03-08T13:38:06.819Z,98713.81
2019-03-08T13:40:35.726Z,98714.66
2019-03-08T13:43:04.729Z,98707.34
2019-03-08T13:45:33.683Z,98720.28
2019-03-08T13:48:02.673Z,98727.81
2019-03-08T13:50:32.108Z,98733.07
2019-03-08T13:53:01.175Z,98755.77
2019-03-08T13:55:30.684Z,98765.05
2019-03-08T13:57:59.862Z,98746.20
2019-03-08T14:00:28.829Z,98761.36
2019-03-08T14:02:57.800Z,98760.94
2019-03-08T14:05:26.808Z,98749.05
2019-03-08T14:07:55.755Z,98747.02
2019-03-08T14:10:24.879Z,98740.95
2019-03-08T14:12:53.782Z,98750.11
2019-03-08T14:15:22.748Z,98767.08
2019-03-08T14:17:51.718Z,98778.30
2019-03-08T14:20:21.059Z,98765.74
2019-03-08T14:22:49.989Z,98764.55
2019-03-08T14:25:19.044Z,98756.09
2019-03-08T14:27:48.135Z,98745.95
2019-03-08T14:30:18.385Z,98737.83
2019-03-08T14:32:47.445Z,98738.56
2019-03-08T14:35:16.475Z,98747.13
2019-03-08T14:37:45.351Z,98744.37
2019-03-08T14:40:23.787Z,98732.17
2019-03-08T14:42:59.080Z,98730.84
2019-03-08T14:45:44.534Z,98734.67
2019-03-08T14:48:13.333Z,98737.82
2019-03-08T14:50:42.354Z,98726.25
2019-03-08T14:53:11.292Z,98732.72
2019-03-08T14:55:40.139Z,98732.35
2019-03-08T14:58:09.165Z,98720.36
2019-03-08T15:00:38.127Z,98722.41
2019-03-08T15:03:07.283Z,98717.45
2019-03-08T15:05:36.242Z,98719.87
2019-03-08T15:08:05.225Z,98715.45
2019-03-08T15:10:39.523Z,98714.45
2019-03-08T15:13:05.041Z,98715.91
2019-03-08T15:15:34.010Z,98724.52
2019-03-08T15:18:03.507Z,98726.20
2019-03-08T15:20:33.695Z,98733.51
2019-03-08T15:23:02.579Z,98740.16
2019-03-08T15:25:31.618Z,98745.59
2019-03-08T15:28:00.569Z,98740.73
2019-03-08T15:30:29.567Z,98750.64
2019-03-08T15:32:58.846Z,98769.45
2019-03-08T15:35:27.772Z,98761.00
2019-03-08T15:37:56.723Z,98740.19
2019-03-08T15:40:25.735Z,98744.36
2019-03-08T15:42:54.627Z,98754.75
2019-03-08T15:45:23.580Z,98752.89
2019-03-08T15:47:52.486Z,98754.20
2019-03-08T15:50:21.662Z,98756.11
2019-03-08T15:52:51.508Z,98758.61
2019-03-08T15:55:20.604Z,98756.48
2019-03-08T15:57:49.563Z,98755.26
2019-03-08T16:00:19.766Z,98752.17
2019-03-08T16:02:48.963Z,98749.67
2019-03-08T16:05:17.952Z,98752.52
2019-03-08T16:07:47.151Z,98753.73
2019-03-08T16:10:16.568Z,98752.77
2019-03-08T16:12:46.624Z,98743.83
2019-03-08T16:15:15.914Z,98748.95
2019-03-08T16:17:44.892Z,98751.83
2019-03-08T16:20:15.049Z,98756.36
2019-03-08T16:22:44.283Z,98747.05
2019-03-08T16:25:14.070Z,98749.88
2019-03-08T16:27:43.072Z,98747.12
2019-03-08T16:30:33.416Z,98749.02
2019-03-08T16:33:23.393Z,98746.02
2019-03-08T16:36:08.500Z,98746.39
2019-03-08T16:38:52.510Z,98751.06
2019-03-08T16:41:38.827Z,98752.56
2019-03-08T16:44:20.148Z,98749.02
2019-03-08T16:46:55.538Z,98760.69
2019-03-08T16:49:38.885Z,98754.53
2019-03-08T16:52:34.392Z,98751.63
2019-03-08T16:55:26.482Z,98755.78
2019-03-08T16:58:13.123Z,98765.98
2019-03-08T17:00:58.193Z,98763.57
2019-03-08T17:03:40.704Z,98768.61
2019-03-08T17:06:29.345Z,98766.05
2019-03-08T17:09:20.230Z,98770.59
2019-03-08T17:12:05.749Z,98773.79
2019-03-08T17:14:55.787Z,98773.79
2019-03-08T17:17:59.322Z,98774.22
2019-03-08T17:20:43.797Z,98783.66
2019-03-08T17:23:37.743Z,98774.83
2019-03-08T17:26:29.013Z,98793.10
2019-03-08T17:29:22.664Z,98795.64
2019-03-08T17:31:58.146Z,98799.30
2019-03-08T17:34:35.852Z,98801.66
2019-03-08T17:37:14.493Z,98800.07
2019-03-08T17:39:59.471Z,98805.42
2019-03-08T17:42:44.240Z,98804.49
2019-03-08T17:45:41.313Z,98806.61
2019-03-08T17:48:25.364Z,98814.77
2019-03-08T17:51:31.627Z,98824.18
2019-03-08T17:54:17.031Z,98827.19
2019-03-08T17:57:03.639Z,98828.80
2019-03-08T17:59:58.666Z,98825.69
2019-03-08T18:02:49.557Z,98823.40
2019-03-08T18:05:29.344Z,98819.83
2019-03-08T18:08:28.154Z,98824.82
2019-03-08T18:11:09.462Z,98825.39
2019-03-08T18:13:54.015Z,98827.37
2019-03-08T18:16:39.451Z,98828.17
2019-03-08T18:19:30.027Z,98833.59
2019-03-08T18:22:04.618Z,98826.02
2019-03-08T18:25:07.875Z,98832.85
2019-03-08T18:27:54.767Z,98838.41
2019-03-08T18:30:39.645Z,98844.55
2019-03-08T18:33:26.384Z,98843.77
2019-03-08T18:36:10.424Z,98852.52
2019-03-08T18:38:58.372Z,98856.44
2019-03-08T18:41:33.991Z,98860.54
2019-03-08T18:44:27.747Z,98857.19
2019-03-08T18:47:18.543Z,98866.13
2019-03-08T18:50:06.421Z,98865.55
2019-03-08T18:53:12.953Z,98866.73
2019-03-08T18:55:57.282Z,98857.52
2019-03-08T18:58:45.166Z,98856.22
2019-03-08T19:01:43.026Z,98860.36
2019-03-08T19:04:17.975Z,98858.05
2019-03-08T19:07:08.586Z,98850.55
2019-03-08T19:09:48.333Z,98848.36
2019-03-08T19:12:28.361Z,98855.52
2019-03-08T19:15:22.317Z,98858.83
2019-03-08T19:18:02.069Z,98858.41
2019-03-08T19:20:42.016Z,98866.25
2019-03-08T19:23:22.708Z,98859.72
2019-03-08T19:26:08.014Z,98869.27
2019-03-08T19:28:48.469Z,98869.79
2019-03-08T19:31:48.757Z,98868.83
2019-03-08T19:34:32.775Z,98870.59
2019-03-08T19:37:19.530Z,98865.43
2019-03-08T19:40:06.305Z,98872.20
2019-03-08T19:43:02.841Z,98871.53
2019-03-08T19:45:42.403Z,98877.14
2019-03-08T19:48:29.011Z,98877.55
2019-03-08T19:51:19.351Z,98875.50
2019-03-08T19:53:52.750Z,98876.89
2019-03-08T19:56:39.816Z,98887.74
2019-03-08T19:59:19.028Z,98888.95
2019-03-08T20:02:16.298Z,98882.94
2019-03-08T20:05:04.967Z,98896.36
2019-03-08T20:07:51.820Z,98899.47
2019-03-08T20:10:36.183Z,98901.70
2019-03-08T20:13:24.379Z,98892.58
2019-03-08T20:16:18.512Z,98908.06
2019-03-08T20:19:09.349Z,98910.33
2019-03-08T20:22:00.669Z,98904.17
2019-03-08T20:24:45.854Z,98903.11
2019-03-08T20:27:29.699Z,98908.41
2019-03-08T20:30:16.485Z,98901.13
2019-03-08T20:33:04.027Z,98905.97
2019-03-08T20:35:50.453Z,98905.23
2019-03-08T20:38:31.082Z,98907.27
2019-03-08T20:41:15.703Z,98904.66
2019-03-08T20:43:50.010Z,98904.06
2019-03-08T20:46:26.790Z,98895.75
2019-03-08T20:48:55.959Z,98891.30
2019-03-08T20:51:24.870Z,98896.08
2019-03-08T20:53:53.740Z,98901.91
2019-03-08T20:56:22.866Z,98903.70
2019-03-08T20:58:51.744Z,98903.00
2019-03-08T21:01:20.741Z,98908.73
2019-03-08T21:03:49.804Z,98900.22
2019-03-08T21:06:18.965Z,98902.72
2019-03-08T21:08:47.805Z,98900.43
2019-03-08T21:11:16.751Z,98902.69
2019-03-08T21:13:45.693Z,98904.21
2019-03-08T21:16:14.875Z,98902.05
2019-03-08T21:18:43.703Z,98901.20
2019-03-08T21:21:12.693Z,98897.11
2019-03-08T21:23:41.667Z,98899.47
2019-03-08T21:26:10.514Z,98897.56
2019-03-08T21:28:39.650Z,98893.75
2019-03-08T21:31:08.654Z,98902.05
2019-03-08T21:33:37.512Z,98896.30
2019-03-08T21:36:06.738Z,98894.88
2019-03-08T21:38:35.840Z,98898.41
2019-03-08T21:41:04.843Z,98892.44
2019-03-08T21:43:33.777Z,98882.09
2019-03-08T21:46:02.665Z,98886.69
2019-03-08T21:48:31.694Z,98883.72
2019-03-08T21:51:00.519Z,98876.37
2019-03-08T21:53:29.406Z,98868.77
2019-03-08T21:55:59.377Z,98872.19
2019-03-08T21:58:28.398Z,98878.51
2019-03-08T22:02:39.893Z,98862.46
2019-03-08T22:05:08.868Z,98859.56
2019-03-08T22:07:37.805Z,98872.05
2019-03-08T22:10:21.269Z,98864.98
2019-03-08T22:12:50.242Z,98865.34
2019-03-08T22:15:19.564Z,98862.62
2019-03-08T22:17:48.520Z,98870.04
2019-03-08T22:20:17.412Z,98871.88
2019-03-08T22:22:46.452Z,98863.16
2019-03-08T22:25:15.341Z,98854.60
2019-03-08T22:27:44.353Z,98854.95
2019-03-08T22:30:15.010Z,98845.98
2019-03-08T22:32:43.903Z,98841.00
2019-03-08T22:35:12.794Z,98849.13
2019-03-08T22:37:41.661Z,98827.99
2019-03-08T22:40:10.807Z,98825.84
2019-03-08T22:42:40.092Z,98826.07
2019-03-08T22:45:09.439Z,98824.30
2019-03-08T22:47:38.332Z,98821.75
2019-03-08T22:50:08.069Z,98820.09
2019-03-08T22:52:37.121Z,98819.70
2019-03-08T22:55:06.689Z,98818.45
2019-03-08T22:57:35.646Z,98820.72
2019-03-08T23:00:08.116Z,98819.07
2019-03-08T23:02:37.787Z,98814.73
2019-03-08T23:05:07.410Z,98807.07
2019-03-08T23:07:36.300Z,98801.78
2019-03-08T23:10:09.693Z,98790.53
2019-03-08T23:12:38.605Z,98788.37
2019-03-08T23:15:07.601Z,98785.53
2019-03-08T23:17:36.630Z,98786.84
2019-03-08T23:20:06.114Z,98780.28
2019-03-08T23:22:35.228Z,98779.09
2019-03-08T23:25:04.296Z,98782.58
2019-03-08T23:27:38.517Z,98777.72
2019-03-08T23:30:18.337Z,98784.84
2019-03-08T23:32:50.048Z,98785.73
2019-03-08T23:35:18.925Z,98781.94
2019-03-08T23:37:47.750Z,98780.38
2019-03-08T23:40:16.635Z,98783.46
2019-03-08T23:42:45.939Z,98786.12
2019-03-08T23:45:15.079Z,98783.73
2019-03-08T23:47:44.048Z,98786.19
2019-03-08T23:50:13.038Z,98789.77
2019-03-08T23:52:42.517Z,98795.41
2019-03-08T23:55:11.625Z,98786.03
2019-03-08T23:57:40.475Z,98780.55
